createdAt,value
2018-05-27T00:02:05.242Z,18.01
2018-05-27T00:04:32.718Z,18.03
2018-05-27T00:07:00.212Z,18.04
2018-05-27T00:09:27.678Z,18.06
2018-05-27T00:11:55.137Z,18.04
2018-05-27T00:14:22.607Z,18.02
2018-05-27T00:16:50.081Z,17.99
2018-05-27T00:19:17.572Z,17.93
2018-05-27T00:21:45.069Z,17.93
2018-05-27T00:24:12.661Z,17.91
2018-05-27T00:26:40.160Z,17.88
2018-05-27T00:29:07.662Z,17.87
2018-05-27T00:31:35.179Z,17.82
2018-05-27T00:34:02.658Z,17.76
2018-05-27T00:36:30.146Z,17.68
2018-05-27T00:38:57.601Z,17.64
2018-05-27T00:41:25.054Z,17.61
2018-05-27T00:43:52.523Z,17.54
2018-05-27T00:46:19.982Z,17.49
2018-05-27T00:48:47.482Z,17.45
2018-05-27T00:51:14.945Z,17.44
2018-05-27T00:53:54.283Z,17.40
2018-05-27T00:56:21.743Z,17.35
2018-05-27T00:58:49.198Z,17.30
2018-05-27T01:01:16.681Z,17.30
2018-05-27T01:03:44.221Z,17.29
2018-05-27T01:06:11.754Z,17.29
2018-05-27T01:08:39.262Z,17.28
2018-05-27T01:11:06.753Z,17.29
2018-05-27T01:13:34.222Z,17.25
2018-05-27T01:16:01.716Z,17.20
2018-05-27T01:18:29.185Z,17.17
2018-05-27T01:20:56.643Z,17.19
2018-05-27T01:23:24.133Z,17.18
2018-05-27T01:25:51.591Z,17.21
2018-05-27T01:28:19.038Z,17.27
2018-05-27T01:30:46.514Z,17.29
2018-05-27T01:33:13.958Z,17.37
2018-05-27T01:35:41.435Z,17.31
2018-05-27T01:38:08.897Z,17.29
2018-05-27T01:40:36.354Z,17.29
2018-05-27T01:43:03.838Z,17.30
2018-05-27T01:45:31.297Z,17.25
2018-05-27T01:47:58.758Z,17.29
2018-05-27T01:50:26.310Z,17.36
2018-05-27T01:52:53.820Z,17.27
2018-05-27T01:55:21.296Z,17.16
2018-05-27T01:57:48.761Z,17.08
2018-05-27T02:00:16.246Z,17.06
2018-05-27T02:02:43.694Z,17.03
2018-05-27T02:05:11.178Z,16.96
2018-05-27T02:07:38.655Z,16.93
2018-05-27T02:10:06.118Z,16.91
2018-05-27T02:25:28.814Z,16.83
2018-05-27T02:27:56.265Z,16.81
2018-05-27T02:30:23.731Z,16.79
2018-05-27T02:32:51.197Z,16.79
2018-05-27T02:35:18.705Z,16.82
2018-05-27T02:37:46.167Z,16.81
2018-05-27T02:40:13.647Z,16.76
2018-05-27T02:42:41.091Z,16.70
2018-05-27T02:45:08.546Z,16.67
2018-05-27T02:47:36.037Z,16.64
2018-05-27T02:50:03.518Z,16.60
2018-05-27T02:52:30.973Z,16.57
2018-05-27T02:54:58.471Z,16.56
2018-05-27T02:57:25.941Z,16.52
2018-05-27T02:59:53.409Z,16.53
2018-05-27T03:02:20.907Z,16.52
2018-05-27T03:04:48.379Z,16.53
2018-05-27T03:07:15.848Z,16.54
2018-05-27T03:09:43.341Z,16.57
2018-05-27T03:12:10.810Z,16.62
2018-05-27T03:14:38.274Z,16.65
2018-05-27T03:17:05.753Z,16.65
2018-05-27T03:19:33.229Z,16.66
2018-05-27T03:22:00.689Z,16.67
2018-05-27T03:24:28.179Z,16.73
2018-05-27T03:26:55.649Z,16.86
2018-05-27T03:29:23.160Z,17.01
2018-05-27T03:31:50.666Z,17.11
2018-05-27T03:34:18.159Z,17.13
2018-05-27T03:36:45.617Z,17.20
2018-05-27T03:39:13.098Z,17.22
2018-05-27T03:44:13.339Z,17.44
2018-05-27T03:46:40.805Z,17.51
2018-05-27T03:49:08.267Z,17.54
2018-05-27T03:51:35.734Z,17.56
2018-05-27T03:54:03.209Z,17.63
2018-05-27T03:56:30.692Z,17.70
2018-05-27T03:58:58.171Z,17.77
2018-05-27T04:01:25.626Z,17.80
2018-05-27T04:07:08.189Z,17.90
2018-05-27T04:09:35.667Z,17.94
2018-05-27T04:12:03.126Z,17.99
2018-05-27T04:14:30.585Z,18.02
2018-05-27T04:16:58.095Z,18.05
2018-05-27T04:19:25.550Z,17.96
2018-05-27T04:21:53.674Z,18.00
2018-05-27T04:24:21.207Z,18.13
2018-05-27T04:26:48.682Z,18.13
2018-05-27T04:29:16.150Z,18.23
2018-05-27T04:31:43.628Z,18.33
2018-05-27T04:34:11.084Z,18.44
2018-05-27T04:36:38.565Z,18.61
2018-05-27T04:39:06.081Z,18.65
2018-05-27T04:41:33.533Z,18.76
2018-05-27T04:44:01.041Z,18.81
2018-05-27T04:46:28.550Z,18.90
2018-05-27T04:48:56.010Z,19.02
2018-05-27T04:51:23.469Z,19.11
2018-05-27T04:53:50.947Z,19.22
2018-05-27T04:56:18.486Z,19.38
2018-05-27T04:58:45.948Z,19.49
2018-05-27T05:01:13.427Z,19.59
2018-05-27T05:03:40.934Z,19.67
2018-05-27T05:06:08.393Z,19.73
2018-05-27T05:08:35.879Z,19.79
2018-05-27T05:11:03.359Z,19.91
2018-05-27T05:13:30.826Z,20.04
2018-05-27T05:15:58.797Z,20.18
2018-05-27T05:18:26.273Z,20.35
2018-05-27T05:20:53.734Z,20.43
2018-05-27T05:23:21.239Z,20.64
2018-05-27T05:25:48.696Z,20.71
2018-05-27T05:28:16.152Z,20.69
2018-05-27T05:30:43.627Z,20.76
2018-05-27T05:33:11.089Z,20.80
2018-05-27T05:35:38.562Z,20.86
2018-05-27T05:38:06.055Z,20.92
2018-05-27T05:40:33.528Z,21.03
2018-05-27T05:43:00.990Z,21.17
2018-05-27T05:45:28.466Z,21.18
2018-05-27T05:47:55.923Z,21.27
2018-05-27T05:50:23.389Z,21.44
2018-05-27T05:52:50.859Z,21.54
2018-05-27T05:55:18.314Z,21.64
2018-05-27T05:57:45.774Z,21.71
2018-05-27T06:00:13.243Z,21.73
2018-05-27T06:02:40.729Z,21.83
2018-05-27T06:05:08.193Z,22.01
2018-05-27T06:07:35.704Z,22.00
2018-05-27T06:10:03.162Z,22.12
2018-05-27T06:12:30.621Z,22.41
2018-05-27T06:14:58.114Z,22.42
2018-05-27T06:17:25.584Z,22.48
2018-05-27T06:19:53.055Z,22.66
2018-05-27T06:22:20.537Z,22.75
2018-05-27T06:24:48.041Z,22.80
2018-05-27T06:27:15.538Z,22.96
2018-05-27T06:29:43.011Z,23.11
2018-05-27T06:32:10.483Z,23.22
2018-05-27T06:34:37.951Z,23.26
2018-05-27T06:37:05.414Z,23.35
2018-05-27T06:39:32.891Z,23.43
2018-05-27T06:42:00.390Z,23.49
2018-05-27T06:44:27.860Z,23.62
2018-05-27T06:46:55.331Z,23.63
2018-05-27T06:49:22.805Z,23.80
2018-05-27T06:51:50.310Z,23.80
2018-05-27T06:54:17.766Z,23.91
2018-05-27T06:56:45.221Z,24.01
2018-05-27T06:59:12.705Z,24.10
2018-05-27T07:01:40.169Z,24.20
2018-05-27T07:04:07.687Z,24.25
2018-05-27T07:06:35.160Z,24.36
2018-05-27T07:09:02.655Z,24.39
2018-05-27T07:11:30.112Z,24.46
2018-05-27T07:13:57.683Z,24.65
2018-05-27T07:16:25.150Z,24.63
2018-05-27T07:18:52.618Z,24.71
2018-05-27T07:21:20.097Z,24.88
2018-05-27T07:23:47.551Z,24.92
2018-05-27T07:26:15.027Z,24.92
2018-05-27T07:28:42.514Z,24.92
2018-05-27T07:31:09.966Z,25.03
2018-05-27T07:33:37.413Z,25.19
2018-05-27T07:36:04.902Z,25.23
2018-05-27T07:38:32.359Z,25.17
2018-05-27T07:40:59.937Z,25.32
2018-05-27T07:43:27.447Z,25.28
2018-05-27T07:45:54.901Z,25.39
2018-05-27T07:48:22.366Z,25.51
2018-05-27T07:50:49.846Z,25.63
2018-05-27T07:53:17.304Z,25.65
2018-05-27T07:55:44.810Z,25.71
2018-05-27T07:58:12.318Z,25.84
2018-05-27T08:00:39.754Z,25.90
2018-05-27T08:03:07.222Z,25.87
2018-05-27T08:05:34.666Z,25.88
2018-05-27T08:08:02.240Z,25.85
2018-05-27T08:10:29.748Z,25.93
2018-05-27T08:12:57.209Z,26.00
2018-05-27T08:15:24.727Z,26.08
2018-05-27T08:17:52.193Z,26.10
2018-05-27T08:20:19.651Z,26.13
2018-05-27T08:22:47.109Z,26.24
2018-05-27T08:25:29.674Z,26.22
2018-05-27T08:27:57.130Z,26.33
2018-05-27T08:30:24.599Z,26.35
2018-05-27T08:32:52.096Z,26.37
2018-05-27T08:35:19.558Z,26.42
2018-05-27T08:37:47.687Z,26.40
2018-05-27T08:40:15.155Z,26.55
2018-05-27T08:42:42.632Z,26.50
2018-05-27T08:45:10.099Z,26.50
2018-05-27T08:47:37.599Z,26.55
2018-05-27T08:50:05.103Z,26.69
2018-05-27T08:52:32.587Z,26.81
2018-05-27T08:55:00.082Z,26.99
2018-05-27T08:57:27.543Z,27.01
2018-05-27T08:59:55.051Z,27.04
2018-05-27T09:02:22.514Z,27.10
2018-05-27T09:04:49.971Z,27.05
2018-05-27T09:07:17.450Z,27.10
2018-05-27T09:09:44.926Z,27.16
2018-05-27T09:12:12.440Z,27.18
2018-05-27T09:14:39.853Z,27.21
2018-05-27T09:17:07.386Z,27.42
2018-05-27T09:19:34.891Z,27.35
2018-05-27T09:22:02.434Z,27.43
2018-05-27T09:24:29.907Z,27.49
2018-05-27T09:26:57.397Z,27.51
2018-05-27T09:29:24.873Z,27.64
2018-05-27T09:31:52.322Z,27.69
2018-05-27T09:34:19.782Z,27.71
2018-05-27T09:36:47.264Z,27.77
2018-05-27T09:39:14.785Z,27.87
2018-05-27T09:41:42.202Z,28.00
2018-05-27T09:44:09.666Z,28.15
2018-05-27T09:46:37.130Z,28.28
2018-05-27T09:49:04.582Z,28.51
2018-05-27T09:51:32.065Z,28.61
2018-05-27T09:53:59.542Z,28.82
2018-05-27T09:56:27.012Z,28.89
2018-05-27T09:58:54.499Z,28.77
2018-05-27T10:01:21.957Z,28.72
2018-05-27T10:03:49.411Z,28.70
2018-05-27T10:06:16.866Z,28.84
2018-05-27T10:08:44.360Z,28.95
2018-05-27T10:11:11.860Z,28.88
2018-05-27T10:13:39.323Z,29.06
2018-05-27T10:16:06.841Z,29.27
2018-05-27T10:18:34.321Z,29.35
2018-05-27T10:21:01.788Z,29.29
2018-05-27T10:23:29.278Z,29.27
2018-05-27T10:25:56.837Z,29.43
2018-05-27T10:28:24.218Z,29.54
2018-05-27T10:30:51.696Z,29.69
2018-05-27T10:33:19.158Z,29.60
2018-05-27T10:35:46.634Z,29.60
2018-05-27T10:38:14.108Z,29.68
2018-05-27T10:40:41.573Z,29.76
2018-05-27T10:43:09.014Z,29.83
2018-05-27T10:45:36.502Z,30.02
2018-05-27T10:48:03.989Z,29.91
2018-05-27T10:50:31.449Z,29.96
2018-05-27T10:52:58.950Z,29.96
2018-05-27T10:55:26.412Z,30.01
2018-05-27T10:57:53.860Z,30.05
2018-05-27T11:00:21.342Z,30.05
2018-05-27T11:02:48.806Z,30.11
2018-05-27T11:05:16.279Z,30.27
2018-05-27T11:07:43.770Z,30.07
2018-05-27T11:10:11.231Z,30.04
2018-05-27T11:12:38.712Z,29.98
2018-05-27T11:15:06.246Z,30.25
2018-05-27T11:17:33.699Z,30.28
2018-05-27T11:20:01.208Z,30.25
2018-05-27T11:22:28.686Z,30.45
2018-05-27T11:24:56.153Z,30.71
2018-05-27T11:27:23.631Z,30.88
2018-05-27T11:29:51.144Z,30.97
2018-05-27T11:32:18.557Z,30.56
2018-05-27T11:34:46.041Z,30.44
2018-05-27T11:37:13.501Z,30.38
2018-05-27T11:39:40.952Z,30.41
2018-05-27T11:42:08.411Z,30.51
2018-05-27T11:44:35.874Z,30.50
2018-05-27T11:47:03.338Z,30.66
2018-05-27T11:49:30.838Z,30.74
2018-05-27T11:51:58.283Z,30.72
2018-05-27T11:54:25.744Z,30.79
2018-05-27T11:56:53.222Z,30.78
2018-05-27T11:59:20.681Z,30.60
2018-05-27T12:01:48.240Z,30.28
2018-05-27T12:04:15.669Z,30.15
2018-05-27T12:06:43.133Z,29.99
2018-05-27T12:09:10.799Z,29.62
2018-05-27T12:11:38.258Z,29.67
2018-05-27T12:14:05.758Z,29.73
2018-05-27T12:16:33.227Z,29.73
2018-05-27T12:19:00.702Z,29.80
2018-05-27T12:21:28.160Z,30.25
2018-05-27T12:23:55.642Z,30.18
2018-05-27T12:26:23.122Z,30.05
2018-05-27T12:28:50.594Z,30.00
2018-05-27T12:31:18.046Z,29.97
2018-05-27T12:33:45.535Z,29.90
2018-05-27T12:36:12.978Z,29.82
2018-05-27T12:38:40.459Z,29.70
2018-05-27T12:41:07.986Z,29.63
2018-05-27T12:43:35.446Z,29.43
2018-05-27T12:46:02.906Z,29.54
2018-05-27T12:48:30.937Z,29.77
2018-05-27T12:50:58.411Z,30.00
2018-05-27T12:53:25.939Z,30.21
2018-05-27T12:55:53.427Z,30.47
2018-05-27T12:58:20.867Z,30.56
2018-05-27T13:00:48.305Z,30.69
2018-05-27T13:03:15.799Z,30.85
2018-05-27T13:05:43.330Z,30.94
2018-05-27T13:08:10.791Z,30.85
2018-05-27T13:10:38.275Z,30.83
2018-05-27T13:13:09.650Z,30.93
2018-05-27T13:15:37.189Z,30.89
2018-05-27T13:18:04.665Z,30.85
2018-05-27T13:20:32.123Z,30.60
2018-05-27T13:22:59.597Z,30.64
2018-05-27T13:25:27.074Z,30.50
2018-05-27T13:27:54.650Z,30.42
2018-05-27T13:30:22.328Z,30.52
2018-05-27T13:32:49.903Z,30.73
2018-05-27T13:35:17.349Z,30.89
2018-05-27T13:37:44.894Z,31.09
2018-05-27T13:40:12.357Z,31.37
2018-05-27T13:42:39.841Z,31.57
2018-05-27T13:45:07.306Z,31.40
2018-05-27T13:47:34.789Z,31.54
2018-05-27T13:50:02.330Z,31.63
2018-05-27T13:52:29.819Z,31.66
2018-05-27T13:54:57.271Z,31.69
2018-05-27T13:57:24.717Z,31.69
2018-05-27T13:59:52.203Z,31.70
2018-05-27T14:02:19.658Z,31.56
2018-05-27T14:04:47.159Z,31.66
2018-05-27T14:07:14.634Z,31.62
2018-05-27T14:09:42.084Z,31.57
2018-05-27T14:12:09.541Z,31.40
2018-05-27T14:14:37.069Z,31.38
2018-05-27T14:17:04.545Z,31.42
2018-05-27T14:19:32.018Z,31.33
2018-05-27T14:21:59.501Z,31.18
2018-05-27T14:24:26.991Z,31.22
2018-05-27T14:26:54.460Z,31.12
2018-05-27T14:29:21.940Z,30.93
2018-05-27T14:31:49.403Z,30.96
2018-05-27T14:34:16.866Z,31.09
2018-05-27T14:36:44.411Z,30.94
2018-05-27T14:39:12.057Z,30.98
2018-05-27T14:41:40.365Z,30.91
2018-05-27T14:44:07.893Z,30.67
2018-05-27T14:46:35.422Z,30.56
2018-05-27T14:49:02.920Z,30.48
2018-05-27T14:51:30.401Z,30.43
2018-05-27T14:53:58.587Z,30.34
2018-05-27T14:56:26.403Z,30.31
2018-05-27T14:58:53.880Z,30.18
2018-05-27T15:01:21.362Z,30.16
2018-05-27T15:03:48.890Z,30.19
2018-05-27T15:06:16.391Z,30.21
2018-05-27T15:08:43.897Z,30.10
2018-05-27T15:11:11.930Z,30.03
2018-05-27T15:13:39.534Z,29.99
2018-05-27T15:16:06.999Z,29.86
2018-05-27T15:18:34.516Z,29.74
2018-05-27T15:21:02.033Z,29.71
2018-05-27T15:23:29.531Z,29.69
2018-05-27T15:25:56.982Z,29.68
2018-05-27T15:28:24.522Z,29.60
2018-05-27T15:30:51.975Z,29.46
2018-05-27T15:33:20.067Z,29.52
2018-05-27T15:35:47.612Z,29.34
2018-05-27T15:38:15.057Z,29.29
2018-05-27T15:40:42.591Z,29.23
2018-05-27T15:43:10.066Z,29.11
2018-05-27T15:45:37.533Z,29.09
2018-05-27T15:48:04.986Z,28.96
2018-05-27T15:50:32.458Z,28.95
2018-05-27T15:52:59.933Z,28.84
2018-05-27T15:55:27.401Z,28.79
2018-05-27T15:57:54.892Z,28.80
2018-05-27T16:00:22.378Z,28.66
2018-05-27T16:02:49.877Z,28.63
2018-05-27T16:05:17.387Z,28.64
2018-05-27T16:07:44.860Z,28.49
2018-05-27T16:10:12.319Z,28.41
2018-05-27T16:12:39.769Z,28.39
2018-05-27T16:15:07.225Z,28.35
2018-05-27T16:17:34.701Z,28.25
2018-05-27T16:20:02.270Z,28.23
2018-05-27T16:22:29.740Z,28.20
2018-05-27T16:24:57.263Z,28.23
2018-05-27T16:27:24.750Z,28.21
2018-05-27T16:29:52.225Z,28.18
2018-05-27T16:32:19.675Z,28.13
2018-05-27T16:34:47.137Z,28.06
2018-05-27T16:37:14.582Z,28.05
2018-05-27T16:39:42.864Z,28.15
2018-05-27T16:42:10.417Z,28.29
2018-05-27T16:44:38.118Z,28.44
2018-05-27T16:47:05.632Z,28.57
2018-05-27T16:49:33.406Z,28.61
2018-05-27T16:52:00.971Z,28.57
2018-05-27T16:54:28.445Z,28.52
2018-05-27T16:56:55.923Z,28.44
2018-05-27T16:59:23.387Z,28.35
2018-05-27T17:01:50.846Z,28.24
2018-05-27T17:04:18.357Z,28.18
2018-05-27T17:06:45.856Z,28.12
2018-05-27T17:09:13.315Z,27.96
2018-05-27T17:11:40.810Z,27.85
2018-05-27T17:14:08.312Z,27.75
2018-05-27T17:16:35.751Z,27.61
2018-05-27T17:19:03.223Z,27.51
2018-05-27T17:21:30.746Z,27.38
2018-05-27T17:23:58.201Z,27.29
2018-05-27T17:26:25.674Z,27.16
2018-05-27T17:28:53.148Z,27.02
2018-05-27T17:31:20.690Z,26.91
2018-05-27T17:33:48.241Z,26.81
2018-05-27T17:36:16.355Z,26.71
2018-05-27T17:38:45.830Z,26.57
2018-05-27T17:41:13.345Z,26.44
2018-05-27T17:43:40.839Z,26.31
2018-05-27T17:46:08.313Z,26.20
2018-05-27T17:48:35.793Z,26.11
2018-05-27T17:51:03.294Z,25.98
2018-05-27T17:53:30.765Z,25.86
2018-05-27T17:55:58.257Z,25.75
2018-05-27T17:58:25.774Z,25.64
2018-05-27T18:00:53.477Z,25.53
2018-05-27T18:03:21.006Z,25.44
2018-05-27T18:05:48.504Z,25.36
2018-05-27T18:08:16.008Z,25.26
2018-05-27T18:10:43.520Z,25.16
2018-05-27T18:13:11.091Z,25.04
2018-05-27T18:15:38.615Z,24.91
2018-05-27T18:18:06.245Z,24.79
2018-05-27T18:20:33.699Z,24.68
2018-05-27T18:23:01.200Z,24.56
2018-05-27T18:25:28.723Z,24.44
2018-05-27T18:27:56.311Z,24.30
2018-05-27T18:30:23.796Z,24.18
2018-05-27T18:32:51.338Z,24.06
2018-05-27T18:35:18.846Z,23.92
2018-05-27T18:37:46.467Z,23.81
2018-05-27T18:40:13.979Z,23.69
2018-05-27T18:42:41.530Z,23.59
2018-05-27T18:45:09.026Z,23.51
2018-05-27T18:47:36.514Z,23.44
2018-05-27T18:50:04.014Z,23.33
2018-05-27T18:52:31.540Z,23.25
2018-05-27T18:54:59.151Z,23.18
2018-05-27T18:57:26.605Z,23.11
2018-05-27T18:59:54.078Z,23.00
2018-05-27T19:02:21.621Z,22.91
2018-05-27T19:04:49.072Z,22.84
2018-05-27T19:07:16.536Z,22.76
2018-05-27T19:09:44.247Z,22.70
2018-05-27T19:12:11.766Z,22.66
2018-05-27T19:14:39.319Z,22.57
2018-05-27T19:17:06.851Z,22.54
2018-05-27T19:19:34.343Z,22.46
2018-05-27T19:22:01.837Z,22.37
2018-05-27T19:24:29.341Z,22.33
2018-05-27T19:26:56.827Z,22.26
2018-05-27T19:29:24.326Z,22.26
2018-05-27T19:31:51.859Z,22.24
2018-05-27T19:34:19.341Z,22.19
2018-05-27T19:36:46.854Z,22.11
2018-05-27T19:39:14.338Z,22.04
2018-05-27T19:41:41.814Z,22.02
2018-05-27T19:44:09.275Z,22.02
2018-05-27T19:46:36.749Z,22.04
2018-05-27T19:49:04.238Z,22.00
2018-05-27T19:51:31.750Z,21.98
2018-05-27T19:53:59.246Z,21.88
2018-05-27T19:56:26.750Z,21.80
2018-05-27T19:58:54.205Z,21.73
2018-05-27T20:01:21.693Z,21.68
2018-05-27T20:03:49.155Z,21.63
2018-05-27T20:06:16.722Z,21.57
2018-05-27T20:08:45.301Z,21.56
2018-05-27T20:11:13.266Z,21.53
2018-05-27T20:13:41.319Z,21.50
2018-05-27T20:16:09.099Z,21.47
2018-05-27T20:18:36.915Z,21.44
2018-05-27T20:21:04.549Z,21.45
2018-05-27T20:23:32.113Z,21.47
2018-05-27T20:25:59.601Z,21.44
2018-05-27T20:28:27.090Z,21.39
2018-05-27T20:30:54.647Z,21.36
2018-05-27T20:33:22.091Z,21.36
2018-05-27T20:35:49.593Z,21.41
2018-05-27T20:38:17.082Z,21.45
2018-05-27T20:40:44.599Z,21.44
2018-05-27T20:43:12.119Z,21.39
2018-05-27T20:45:39.705Z,21.36
2018-05-27T20:48:07.196Z,21.33
2018-05-27T20:50:34.655Z,21.31
2018-05-27T20:53:02.124Z,21.28
2018-05-27T20:55:29.580Z,21.29
2018-05-27T20:57:57.041Z,21.34
2018-05-27T21:00:24.511Z,21.37
2018-05-27T21:02:52.071Z,21.37
2018-05-27T21:05:19.527Z,21.35
2018-05-27T21:07:46.999Z,21.30
2018-05-27T21:10:14.518Z,21.23
2018-05-27T21:12:42.110Z,21.21
2018-05-27T21:15:09.582Z,21.18
2018-05-27T21:17:37.099Z,21.12
2018-05-27T21:20:04.651Z,21.06
2018-05-27T21:22:32.216Z,20.98
2018-05-27T21:24:59.667Z,20.95
2018-05-27T21:27:27.254Z,20.93
2018-05-27T21:29:54.747Z,20.96
2018-05-27T21:32:23.298Z,20.97
2018-05-27T21:34:50.796Z,20.95
2018-05-27T21:37:18.342Z,20.92
2018-05-27T21:39:45.864Z,20.87
2018-05-27T21:42:13.321Z,20.90
2018-05-27T21:44:40.891Z,20.87
2018-05-27T21:47:08.391Z,20.81
2018-05-27T21:49:35.857Z,20.79
2018-05-27T21:52:04.752Z,20.72
2018-05-27T21:54:33.880Z,20.71
2018-05-27T21:57:01.478Z,20.67
2018-05-27T21:59:28.943Z,20.64
2018-05-27T22:01:56.463Z,20.67
2018-05-27T22:04:23.934Z,20.69
2018-05-27T22:06:51.462Z,20.72
2018-05-27T22:09:18.930Z,20.62
2018-05-27T22:11:46.408Z,20.57
2018-05-27T22:14:13.976Z,20.47
2018-05-27T22:16:41.489Z,20.39
2018-05-27T22:19:10.307Z,20.36
2018-05-27T22:21:43.768Z,20.31
2018-05-27T22:24:12.207Z,20.26
2018-05-27T22:26:40.318Z,20.26
2018-05-27T22:29:07.837Z,20.22
2018-05-27T22:31:35.309Z,20.23
2018-05-27T22:34:02.836Z,20.26
2018-05-27T22:36:30.315Z,20.26
2018-05-27T22:38:57.795Z,20.24
2018-05-27T22:41:25.363Z,20.23
2018-05-27T22:43:53.724Z,20.25
2018-05-27T22:46:21.246Z,20.23
2018-05-27T22:48:48.749Z,20.22
2018-05-27T22:51:16.260Z,20.25
2018-05-27T22:53:43.729Z,20.24
2018-05-27T22:56:11.294Z,20.26
2018-05-27T22:58:38.801Z,20.24
2018-05-27T23:01:06.454Z,20.17
2018-05-27T23:03:33.933Z,20.17
2018-05-27T23:06:01.443Z,20.18
2018-05-27T23:08:28.942Z,20.23
2018-05-27T23:10:56.421Z,20.19
2018-05-27T23:13:23.902Z,20.16
2018-05-27T23:15:51.392Z,20.11
2018-05-27T23:18:19.725Z,20.04
2018-05-27T23:20:47.195Z,20.03
2018-05-27T23:23:14.667Z,19.92
2018-05-27T23:25:42.146Z,19.84
2018-05-27T23:28:10.467Z,19.77
2018-05-27T23:30:38.011Z,19.78
2018-05-27T23:33:05.565Z,19.80
2018-05-27T23:35:33.081Z,19.80
2018-05-27T23:38:00.639Z,19.87
2018-05-27T23:40:28.187Z,19.85
2018-05-27T23:42:55.718Z,19.85
2018-05-27T23:45:23.241Z,19.85
2018-05-27T23:47:50.726Z,19.74
2018-05-27T23:50:18.226Z,19.66
2018-05-27T23:52:45.813Z,19.60
2018-05-27T23:55:14.226Z,19.52
2018-05-27T23:57:41.689Z,19.49
